Time;durP1;ratioP1;P1;durP2;ratioP2;P2;SDS_P1;SDS_P2;PMS_P1;PMS_P2;Temp;Humidity;BMP_temperature;BMP_pressure;BME280_temperature;BME280_humidity;BME280_pressure;Samples;Min_cycle;Max_cycle;Signal;HPM_P1;HPM_P2
2022/04/24 00:03:06;;;;;;;7.05;5.58;;;;;;;9.02;65.20;99579.03;3547435;78;21469;-78
2022/04/24 00:07:57;;;;;;;8.60;6.58;;;;;;;8.94;65.26;99579.41;3436025;79;21050;-77
2022/04/24 00:12:49;;;;;;;7.17;6.37;;;;;;;8.93;65.47;99585.47;3490993;78;20964;-77
2022/04/24 00:17:40;;;;;;;8.73;7.47;;;;;;;8.93;65.60;99576.39;3453846;79;21008;-77
2022/04/24 00:22:31;;;;;;;6.28;5.67;;;;;;;8.93;65.62;99578.55;3527102;79;21512;-77
2022/04/24 00:27:22;;;;;;;6.92;5.95;;;;;;;8.92;65.67;99574.65;3480138;79;20999;-77
2022/04/24 00:32:14;;;;;;;8.08;7.28;;;;;;;8.78;65.70;99561.20;3502468;78;21552;-77
2022/04/24 00:37:05;;;;;;;9.78;7.37;;;;;;;8.62;65.57;99555.89;3512482;78;21006;-78
2022/04/24 00:41:56;;;;;;;8.20;7.37;;;;;;;8.49;65.80;99556.25;3475816;79;21101;-77
2022/04/24 00:47:13;;;;;;;8.78;7.87;;;;;;;8.40;65.92;99569.53;3472513;79;21623;-77
2022/04/24 00:52:05;;;;;;;;;;;;;;;8.27;66.25;99578.07;3531313;79;20954;-77
2022/04/24 00:56:56;;;;;;;8.35;7.60;;;;;;;8.15;66.27;99577.97;3484499;79;20370;-78
2022/04/24 01:01:47;;;;;;;9.03;7.60;;;;;;;7.98;66.43;99592.93;3560707;79;21058;-77
2022/04/24 01:06:41;;;;;;;10.13;7.90;;;;;;;7.82;66.52;99589.75;3501977;79;21063;-77
2022/04/24 01:11:32;;;;;;;10.08;7.83;;;;;;;7.64;66.30;99584.82;3542178;79;21414;-77
2022/04/24 01:16:24;;;;;;;7.33;6.62;;;;;;;7.52;66.68;99585.12;3557546;78;21639;-77
2022/04/24 01:21:14;;;;;;;9.45;7.80;;;;;;;7.42;67.00;99586.72;3505545;79;20942;-77
2022/04/24 01:26:06;;;;;;;7.85;7.08;;;;;;;7.35;67.54;99582.32;3527227;79;20939;-77
2022/04/24 01:30:57;;;;;;;7.65;6.95;;;;;;;7.38;67.78;99578.48;3495050;79;21145;-77
2022/04/24 01:35:48;;;;;;;10.18;7.35;;;;;;;7.34;67.81;99575.44;3485509;78;21438;-77
2022/04/24 01:40:39;;;;;;;7.10;5.40;;;;;;;7.26;67.94;99562.39;3506316;79;20967;-77
2022/04/24 01:45:30;;;;;;;8.05;6.50;;;;;;;7.24;68.20;99564.98;3450522;79;21226;-77
2022/04/24 01:50:21;;;;;;;7.35;6.60;;;;;;;7.27;68.54;99566.73;3528512;79;21048;-78
2022/04/24 01:55:12;;;;;;;8.50;6.45;;;;;;;7.29;68.72;99569.34;3472603;79;20952;-77
2022/04/24 02:00:05;;;;;;;9.23;8.28;;;;;;;7.27;68.84;99574.48;3503490;79;21035;-77
2022/04/24 02:04:58;;;;;;;9.68;8.65;;;;;;;7.30;69.17;99576.22;3515710;79;20955;-77
2022/04/24 02:09:49;;;;;;;15.10;11.57;;;;;;;7.35;69.17;99582.32;3511460;79;21761;-77
2022/04/24 02:14:40;;;;;;;17.30;14.83;;;;;;;7.40;69.39;99584.14;3534636;79;21625;-77
2022/04/24 02:19:31;;;;;;;17.95;15.10;;;;;;;7.51;69.57;99579.49;3521965;79;21274;-77
2022/04/24 02:24:22;;;;;;;23.52;18.60;;;;;;;7.59;69.62;99581.31;3439008;80;21461;-77
2022/04/24 02:29:13;;;;;;;22.25;17.48;;;;;;;7.69;69.70;99583.59;3531037;79;20974;-77
2022/04/24 02:34:04;;;;;;;24.02;19.42;;;;;;;7.71;69.63;99587.46;3518512;78;21519;-77
2022/04/24 02:38:55;;;;;;;29.65;22.00;;;;;;;7.69;69.70;99586.18;3475423;79;20935;-77
2022/04/24 02:43:46;;;;;;;25.40;20.88;;;;;;;7.68;69.70;99588.74;3531711;79;21264;-78
2022/04/24 02:48:37;;;;;;;25.90;20.92;;;;;;;7.72;69.72;99584.03;3554813;79;20936;-78
2022/04/24 02:53:28;;;;;;;22.75;20.27;;;;;;;7.79;69.82;99584.54;3539754;79;21367;-78
2022/04/24 02:58:21;;;;;;;23.85;19.27;;;;;;;7.80;69.69;99582.41;3530211;78;21675;-78
2022/04/24 03:03:12;;;;;;;24.60;20.52;;;;;;;7.76;69.58;99580.22;3493231;78;20916;-77
2022/04/24 03:08:03;;;;;;;28.27;21.12;;;;;;;7.70;69.83;99587.90;3509047;79;21742;-77
2022/04/24 03:12:54;;;;;;;28.27;20.05;;;;;;;7.68;69.80;99577.11;3516544;79;21431;-78
2022/04/24 03:17:46;;;;;;;26.70;20.65;;;;;;;7.71;69.74;99572.83;3507386;79;20933;-77
2022/04/24 03:22:37;;;;;;;24.18;19.85;;;;;;;7.70;69.90;99568.48;3522476;79;20952;-77
2022/04/24 03:27:29;;;;;;;26.23;20.75;;;;;;;7.67;69.74;99566.30;3478615;79;21018;-77
2022/04/24 03:32:20;;;;;;;25.95;20.43;;;;;;;7.67;69.96;99568.45;3512657;79;20986;-77
2022/04/24 03:37:11;;;;;;;28.15;20.25;;;;;;;7.62;70.03;99574.89;3521499;79;20908;-77
2022/04/24 03:42:04;;;;;;;28.55;20.48;;;;;;;7.65;69.98;99581.80;3478182;79;21073;-77
2022/04/24 03:46:55;;;;;;;25.68;21.45;;;;;;;7.71;70.23;99575.82;3501126;79;20964;-77
2022/04/24 03:51:46;;;;;;;22.95;19.85;;;;;;;7.77;70.13;99578.48;3529582;77;21054;-78
2022/04/24 03:56:37;;;;;;;25.43;20.62;;;;;;;7.77;69.93;99584.95;3534679;80;21064;-77
2022/04/24 04:01:28;;;;;;;26.12;18.98;;;;;;;7.73;69.95;99586.64;3502810;79;21119;-78
2022/04/24 04:06:20;;;;;;;27.95;18.62;;;;;;;7.68;69.85;99580.98;3510332;79;21218;-78
2022/04/24 04:11:12;;;;;;;24.43;18.60;;;;;;;7.73;69.92;99580.61;3529421;79;21560;-78
2022/04/24 04:16:04;;;;;;;22.27;18.70;;;;;;;7.79;69.91;99584.54;3559165;79;21545;-77
2022/04/24 04:20:57;;;;;;;22.75;18.52;;;;;;;7.90;69.93;99581.63;3449670;79;20995;-78
2022/04/24 04:25:48;;;;;;;21.02;16.65;;;;;;;7.90;69.93;99581.63;3518676;79;20983;-77
2022/04/24 04:30:40;;;;;;;21.82;15.23;;;;;;;7.95;69.73;99576.06;3464966;79;21455;-78
2022/04/24 04:35:32;;;;;;;20.92;17.17;;;;;;;8.01;69.87;99581.31;3488463;79;22130;-77
2022/04/24 04:40:23;;;;;;;23.02;16.85;;;;;;;8.10;69.58;99569.29;3493881;79;20947;-78
2022/04/24 04:45:17;;;;;;;21.90;17.57;;;;;;;8.19;69.36;99570.66;3559310;78;21196;-77
2022/04/24 04:50:09;;;;;;;19.00;17.00;;;;;;;8.30;69.05;99571.63;3501503;79;21487;-78
2022/04/24 04:55:02;;;;;;;17.82;15.23;;;;;;;8.40;69.33;99564.78;3449962;79;20971;-77
2022/04/24 04:59:53;;;;;;;18.52;16.57;;;;;;;8.63;69.00;99565.42;3504093;79;21489;-77
2022/04/24 05:04:44;;;;;;;17.35;14.70;;;;;;;8.63;69.00;99565.42;3507043;79;20948;-77
2022/04/24 05:09:36;;;;;;;19.27;16.00;;;;;;;8.81;68.67;99586.25;3530444;79;20900;-78
2022/04/24 05:14:26;;;;;;;19.57;16.35;;;;;;;8.90;68.30;99582.85;3504636;79;21838;-78
2022/04/24 05:19:17;;;;;;;18.98;15.13;;;;;;;8.87;68.12;99585.41;3475020;79;21038;-77
2022/04/24 05:24:08;;;;;;;17.57;15.28;;;;;;;8.70;68.38;99584.89;3480888;79;21657;-78
2022/04/24 05:29:00;;;;;;;20.92;16.23;;;;;;;8.59;68.49;99582.66;3542915;79;21445;-78
2022/04/24 05:33:51;;;;;;;20.88;15.72;;;;;;;8.56;68.67;99577.45;3503740;79;20963;-78
2022/04/24 05:38:41;;;;;;;16.65;14.00;;;;;;;8.53;68.63;99578.31;3521024;79;21648;-78
2022/04/24 05:43:33;;;;;;;13.18;10.18;;;;;;;8.65;68.83;99590.47;3499223;79;20940;-78
2022/04/24 05:48:24;;;;;;;18.95;14.00;;;;;;;8.81;69.04;99595.77;3534918;78;20931;-78
2022/04/24 05:53:15;;;;;;;13.88;12.13;;;;;;;9.20;68.73;99599.44;3530086;79;20940;-78
2022/04/24 05:58:08;;;;;;;12.37;11.08;;;;;;;9.59;68.30;99605.65;3495084;79;21078;-78
2022/04/24 06:03:00;;;;;;;12.00;10.85;;;;;;;9.82;67.79;99610.47;3558912;79;20944;-78
2022/04/24 06:07:51;;;;;;;15.53;13.85;;;;;;;10.14;67.73;99609.66;3481207;79;20909;-78
2022/04/24 06:12:50;;;;;;;24.92;16.50;;;;;;;10.50;66.73;99610.56;3494858;79;20905;-78
2022/04/24 06:17:48;;;;;;;15.98;14.15;;;;;;;10.98;65.50;99597.06;3507163;79;21619;-79
2022/04/24 06:22:48;;;;;;;17.17;13.05;;;;;;;12.05;62.92;99593.52;3567272;79;20990;-79
2022/04/24 06:27:39;;;;;;;12.63;11.38;;;;;;;12.09;63.26;99593.95;3489475;79;20991;-78
2022/04/24 06:32:31;;;;;;;14.40;11.60;;;;;;;12.15;62.64;99592.59;3469355;79;20979;-78
2022/04/24 06:37:22;;;;;;;13.18;10.40;;;;;;;12.27;63.22;99590.75;3505642;79;20900;-79
2022/04/24 06:42:13;;;;;;;11.45;10.25;;;;;;;12.05;63.15;99590.92;3477158;79;21730;-78
2022/04/24 06:47:05;;;;;;;13.00;10.10;;;;;;;12.07;63.08;99599.59;3510009;79;21987;-79
2022/04/24 06:51:56;;;;;;;9.85;8.93;;;;;;;12.04;63.22;99605.25;3473860;79;20939;-78
2022/04/24 06:56:47;;;;;;;10.95;9.45;;;;;;;12.27;62.66;99597.27;3532542;79;22181;-78
2022/04/24 07:01:38;;;;;;;10.72;9.60;;;;;;;12.31;62.27;99605.52;3498605;79;21034;-78
2022/04/24 07:06:29;;;;;;;10.48;9.45;;;;;;;12.37;62.57;99609.36;3529307;79;20952;-78
2022/04/24 07:11:22;;;;;;;10.58;8.98;;;;;;;12.14;62.68;99618.23;3539203;79;20908;-78
2022/04/24 07:16:13;;;;;;;10.25;9.20;;;;;;;11.99;62.67;99620.48;3516017;79;20881;-78
2022/04/24 07:21:06;;;;;;;10.32;8.40;;;;;;;11.75;62.68;99621.48;3532967;78;20921;-79
2022/04/24 07:25:58;;;;;;;7.30;6.60;;;;;;;11.83;63.32;99619.68;3470638;79;20948;-79
2022/04/24 07:30:50;;;;;;;6.50;5.90;;;;;;;12.63;61.74;99615.67;3446795;79;21511;-78
2022/04/24 07:35:42;;;;;;;6.33;5.72;;;;;;;12.75;61.53;99618.59;3502319;77;20996;-78
2022/04/24 07:40:36;;;;;;;3.85;3.45;;;;;;;13.24;61.00;99618.09;3530081;79;20976;-79
2022/04/24 07:45:34;;;;;;;3.58;3.27;;;;;;;13.14;60.89;99616.45;3499429;79;21647;-79
2022/04/24 07:50:28;;;;;;;4.85;4.45;;;;;;;13.29;60.60;99611.07;3500359;77;21422;-79
2022/04/24 07:55:23;;;;;;;5.62;4.85;;;;;;;13.27;60.39;99612.84;3535059;79;20951;-79
2022/04/24 08:00:17;;;;;;;5.28;4.58;;;;;;;13.08;60.53;99613.92;3482470;79;21107;-79
2022/04/24 08:05:08;;;;;;;5.30;4.90;;;;;;;13.01;60.87;99617.48;3476882;77;21012;-79
2022/04/24 08:10:00;;;;;;;4.70;4.30;;;;;;;13.15;60.65;99621.66;3478747;77;21521;-79
2022/04/24 08:14:51;;;;;;;4.72;4.33;;;;;;;13.64;60.00;99620.23;3502213;77;20943;-79
2022/04/24 08:19:44;;;;;;;5.80;5.20;;;;;;;15.55;58.07;99611.80;3504411;79;20900;-79
2022/04/24 08:24:35;;;;;;;5.15;4.65;;;;;;;16.80;55.47;99608.05;3473465;77;21155;-79
2022/04/24 08:29:26;;;;;;;2.92;2.72;;;;;;;16.39;55.29;99601.17;3499958;79;20873;-79
2022/04/24 08:34:17;;;;;;;3.70;3.40;;;;;;;16.83;54.01;99601.38;3516364;79;21513;-79
2022/04/24 08:39:08;;;;;;;2.98;2.72;;;;;;;18.96;51.25;99587.46;3458777;79;20948;-79
2022/04/24 08:44:02;;;;;;;3.35;3.08;;;;;;;21.56;48.71;99586.64;3473808;79;21462;-79
2022/04/24 08:48:54;;;;;;;4.60;4.20;;;;;;;22.85;45.95;99584.77;3475179;79;22155;-79
2022/04/24 08:53:47;;;;;;;5.20;4.15;;;;;;;21.10;47.00;99581.64;3504866;79;20999;-79
2022/04/24 08:58:39;;;;;;;5.20;4.62;;;;;;;19.98;48.18;99587.64;3446543;77;37343;-80
2022/04/24 09:03:31;;;;;;;4.42;3.98;;;;;;;18.76;48.83;99588.14;3531970;79;21085;-80
2022/04/24 09:08:26;;;;;;;4.17;3.77;;;;;;;17.70;49.16;99591.52;3450134;80;21007;-80
2022/04/24 09:13:32;;;;;;;4.13;3.73;;;;;;;17.44;49.75;99587.91;3491064;78;21644;-79
2022/04/24 09:18:25;;;;;;;4.60;4.17;;;;;;;18.81;48.39;99589.27;3509557;78;20943;-78
2022/04/24 09:23:16;;;;;;;6.12;3.95;;;;;;;19.24;47.56;99586.45;3523322;77;20971;-80
2022/04/24 09:28:07;;;;;;;4.33;3.93;;;;;;;19.89;47.26;99587.98;3434530;77;20959;-80
2022/04/24 09:32:59;;;;;;;3.22;3.02;;;;;;;22.34;45.54;99576.77;3465079;79;21039;-79
2022/04/24 09:37:50;;;;;;;3.47;3.00;;;;;;;24.26;43.23;99570.93;3503341;77;20943;-79
2022/04/24 09:42:54;;;;;;;3.63;3.33;;;;;;;22.25;44.29;99582.49;3455685;79;21678;-79
2022/04/24 09:47:45;;;;;;;3.22;2.92;;;;;;;20.27;44.38;99589.09;3497358;79;21018;-77
2022/04/24 09:52:44;;;;;;;4.17;3.35;;;;;;;18.67;46.03;99583.16;3511936;78;20964;-77
2022/04/24 09:57:35;;;;;;;4.17;3.77;;;;;;;17.74;47.14;99601.02;3529673;78;20987;-77
2022/04/24 10:02:28;;;;;;;3.65;3.35;;;;;;;17.39;47.94;99604.25;3522800;79;21060;-77
2022/04/24 10:07:21;;;;;;;3.60;3.30;;;;;;;17.91;47.59;99604.03;3477008;79;20935;-76
2022/04/24 10:12:19;;;;;;;3.35;3.08;;;;;;;17.91;47.37;99612.39;3552161;78;21503;-77
2022/04/24 10:17:55;;;;;;;4.45;3.80;;;;;;;18.08;46.71;99603.95;3528273;79;21485;-77
2022/04/24 10:22:49;;;;;;;3.50;3.02;;;;;;;21.21;43.77;99602.74;3528010;77;22264;-77
2022/04/24 10:27:45;;;;;;;2.77;2.58;;;;;;;24.85;40.47;99594.09;3485635;77;21257;-78
2022/04/24 10:32:36;;;;;;;2.85;2.65;;;;;;;27.12;38.24;99595.06;3492879;79;20968;-78
2022/04/24 10:37:33;;;;;;;2.75;2.15;;;;;;;30.12;35.26;99593.83;3446288;79;21531;-78
2022/04/24 10:42:35;;;;;;;2.80;2.50;;;;;;;31.46;34.22;99586.49;3483691;79;20934;-78
2022/04/24 10:47:30;;;;;;;2.47;2.27;;;;;;;28.80;33.84;99579.72;3491547;79;20922;-77
2022/04/24 10:52:21;;;;;;;2.65;2.45;;;;;;;25.92;36.51;99591.05;3493301;79;21482;-78
2022/04/24 10:57:22;;;;;;;2.92;2.72;;;;;;;24.44;36.26;99584.09;3459757;79;20994;-77
2022/04/24 11:02:13;;;;;;;4.00;2.47;;;;;;;22.90;36.94;99579.25;3523601;78;20967;-77
2022/04/24 11:07:06;;;;;;;3.27;2.98;;;;;;;21.71;38.64;99587.70;3497353;79;20920;-77
2022/04/24 11:12:03;;;;;;;2.45;2.33;;;;;;;20.62;39.32;99578.01;3476168;79;20908;-77
2022/04/24 11:17:01;;;;;;;3.95;2.25;;;;;;;20.04;39.85;99587.38;3475201;79;21461;-77
2022/04/24 11:21:59;;;;;;;2.55;2.35;;;;;;;19.69;40.92;99585.66;3473484;78;20975;-77
2022/04/24 11:26:50;;;;;;;2.47;2.27;;;;;;;19.35;40.94;99588.69;3487072;79;20961;-77
2022/04/24 11:31:53;;;;;;;2.70;2.50;;;;;;;19.14;40.91;99578.50;3458259;77;21493;-77
2022/04/24 11:36:47;;;;;;;2.92;2.62;;;;;;;19.18;41.24;99577.47;3519828;79;20908;-77
2022/04/24 11:41:39;;;;;;;2.42;2.22;;;;;;;20.01;41.27;99578.27;3477813;79;21010;-77
2022/04/24 11:51:44;;;;;;;2.80;2.60;;;;;;;19.52;41.36;99570.47;3490144;79;21501;-77
2022/04/24 11:56:37;;;;;;;2.52;2.33;;;;;;;19.05;41.65;99558.16;3444855;79;21003;-77
2022/04/24 12:01:28;;;;;;;2.67;2.45;;;;;;;19.32;42.13;99555.41;3507430;78;20904;-77
2022/04/24 12:06:19;;;;;;;3.92;3.00;;;;;;;19.30;41.34;99541.44;3481269;79;21573;-77
2022/04/24 12:11:28;;;;;;;4.17;2.12;;;;;;;19.14;41.52;99537.67;3419796;79;21048;-77
2022/04/24 12:16:22;;;;;;;2.15;1.77;;;;;;;19.23;42.24;99524.99;3396858;81;20934;-77
2022/04/24 12:21:19;;;;;;;1.80;1.70;;;;;;;19.58;42.76;99516.64;3411224;80;21505;-77
2022/04/24 12:26:11;;;;;;;2.20;2.10;;;;;;;19.48;41.33;99516.16;3409215;80;21232;-77
2022/04/24 12:31:05;;;;;;;2.30;2.20;;;;;;;19.55;43.07;99510.20;3395597;83;21186;-77
2022/04/24 12:36:08;;;;;;;1.87;1.77;;;;;;;19.21;41.04;99511.02;3429911;80;20999;-77
2022/04/24 12:40:59;;;;;;;2.77;2.42;;;;;;;18.96;41.95;99505.81;3334865;83;21040;-79
2022/04/24 12:45:51;;;;;;;1.90;1.80;;;;;;;19.12;41.37;99501.27;3408668;81;20930;-79
2022/04/24 12:50:42;;;;;;;2.22;2.10;;;;;;;19.03;40.99;99488.87;3365544;83;20956;-79
2022/04/24 12:55:32;;;;;;;2.15;2.05;;;;;;;19.31;41.53;99489.13;3408943;82;20898;-79
2022/04/24 13:00:24;;;;;;;2.27;1.90;;;;;;;19.39;40.68;99488.38;3406731;81;20962;-79
2022/04/24 13:05:16;;;;;;;4.42;2.10;;;;;;;19.56;41.10;99467.08;3473021;79;21211;-79
2022/04/24 13:10:11;;;;;;;1.95;1.85;;;;;;;19.38;40.46;99466.87;3519593;79;20951;-79
2022/04/24 13:15:01;;;;;;;2.00;1.90;;;;;;;19.59;41.10;99465.64;3498163;79;21070;-80
2022/04/24 13:19:53;;;;;;;2.05;1.87;;;;;;;19.67;39.64;99464.86;3545421;79;21497;-79
2022/04/24 13:24:44;;;;;;;2.67;2.47;;;;;;;19.41;39.77;99461.50;3510199;79;21516;-79
2022/04/24 13:29:37;;;;;;;2.45;2.08;;;;;;;19.32;39.82;99463.18;3528643;79;20959;-79
2022/04/24 13:34:29;;;;;;;2.20;2.10;;;;;;;19.35;40.82;99459.12;3519343;79;21449;-76
2022/04/24 13:39:21;;;;;;;2.37;2.17;;;;;;;19.48;39.71;99467.86;3495361;79;20928;-76
2022/04/24 13:44:12;;;;;;;2.27;2.10;;;;;;;19.10;40.02;99483.35;3461629;80;21720;-77
2022/04/24 13:49:04;;;;;;;2.35;2.15;;;;;;;19.17;40.24;99478.25;3478356;80;20920;-77
2022/04/24 13:53:55;;;;;;;4.37;2.45;;;;;;;18.95;40.87;99492.70;3419165;80;21466;-78
2022/04/24 13:58:46;;;;;;;2.42;2.25;;;;;;;18.74;41.06;99486.41;3486319;80;20971;-78
2022/04/24 14:03:38;;;;;;;2.30;2.15;;;;;;;18.40;41.22;99484.97;3417970;80;20912;-78
2022/04/24 14:08:29;;;;;;;2.40;2.20;;;;;;;18.08;41.67;99480.34;3440068;80;20959;-78
2022/04/24 14:13:20;;;;;;;13.50;4.55;;;;;;;18.00;41.87;99471.41;3386770;80;21018;-78
2022/04/24 14:18:12;;;;;;;3.15;2.60;;;;;;;17.40;42.35;99473.31;3496644;80;21121;-77
2022/04/24 14:23:04;;;;;;;2.87;2.67;;;;;;;17.14;42.96;99468.37;3428947;80;20984;-78
2022/04/24 14:27:55;;;;;;;2.98;2.65;;;;;;;17.00;43.34;99463.98;3419445;80;21594;-77
2022/04/24 14:32:48;;;;;;;3.20;2.90;;;;;;;17.41;42.62;99455.31;3434416;82;21080;-77
2022/04/24 14:37:39;;;;;;;3.00;2.80;;;;;;;17.76;42.53;99450.70;3416390;82;21441;-78
2022/04/24 14:42:34;;;;;;;5.33;2.87;;;;;;;17.99;42.27;99450.41;3392362;82;21714;-77
2022/04/24 14:57:42;;;;;;;3.05;2.80;;;;;;;17.37;42.71;99443.19;3378472;81;21095;-77
2022/04/24 15:02:33;;;;;;;3.67;2.62;;;;;;;17.26;43.14;99441.32;3379565;83;20961;-77
2022/04/24 15:07:24;;;;;;;2.90;2.70;;;;;;;17.30;43.06;99435.94;3414005;82;21726;-77
2022/04/24 15:12:16;;;;;;;3.37;3.05;;;;;;;17.22;43.47;99435.77;3476665;79;20992;-77
2022/04/24 15:17:07;;;;;;;2.92;2.72;;;;;;;17.29;43.44;99442.55;3508957;79;20959;-77
2022/04/24 15:21:58;;;;;;;2.75;2.55;;;;;;;17.23;43.45;99438.81;3527455;79;21064;-78
2022/04/24 15:26:49;;;;;;;2.72;2.52;;;;;;;16.84;43.78;99443.03;3524371;79;21550;-78
2022/04/24 15:31:40;;;;;;;2.55;2.10;;;;;;;16.70;44.03;99446.01;3499879;79;20936;-78
2022/04/24 15:36:31;;;;;;;3.70;2.95;;;;;;;16.84;44.00;99444.34;3557567;79;20972;-77
2022/04/24 15:41:24;;;;;;;3.70;3.30;;;;;;;16.86;43.88;99439.91;3514627;79;20909;-77
2022/04/24 15:46:16;;;;;;;3.87;3.55;;;;;;;16.62;44.17;99444.92;3523731;79;21196;-77
2022/04/24 15:51:07;;;;;;;3.75;3.45;;;;;;;16.59;44.36;99445.00;3469802;79;21679;-77
2022/04/24 15:55:58;;;;;;;3.17;2.90;;;;;;;16.61;44.41;99445.81;3475797;79;20964;-77
2022/04/24 16:00:50;;;;;;;3.02;2.83;;;;;;;16.47;44.52;99440.09;3496467;79;20995;-77
2022/04/24 16:05:42;;;;;;;3.47;3.02;;;;;;;16.39;44.76;99429.81;3454863;80;20959;-77
2022/04/24 16:10:33;;;;;;;3.40;3.10;;;;;;;16.20;44.82;99421.58;3427077;80;21697;-77
2022/04/24 16:15:24;;;;;;;3.47;3.17;;;;;;;16.03;45.16;99408.08;3396099;80;22224;-77
2022/04/24 16:20:16;;;;;;;3.05;2.80;;;;;;;15.83;45.72;99405.52;3402643;80;20955;-77
2022/04/24 16:25:09;;;;;;;4.03;3.72;;;;;;;15.53;45.99;99402.72;3436260;82;20916;-78
2022/04/24 16:30:01;;;;;;;5.72;4.05;;;;;;;15.21;46.54;99399.09;3379793;82;20916;-77
2022/04/24 16:34:54;;;;;;;4.10;3.40;;;;;;;15.01;47.08;99402.62;3444919;82;21092;-77
2022/04/24 16:39:45;;;;;;;3.52;3.22;;;;;;;14.85;47.48;99402.95;3343599;82;20940;-77
2022/04/24 16:44:37;;;;;;;3.72;3.42;;;;;;;14.73;47.63;99404.51;3434700;80;20996;-77
2022/04/24 16:49:29;;;;;;;4.50;3.30;;;;;;;14.60;48.04;99391.28;3409832;80;20916;-77
2022/04/24 16:59:30;;;;;;;4.17;3.70;;;;;;;14.40;48.54;99392.52;3462651;80;21577;-77
2022/04/24 17:04:22;;;;;;;4.35;3.80;;;;;;;14.33;48.76;99388.75;3401821;80;20966;-77
2022/04/24 17:09:13;;;;;;;4.55;3.87;;;;;;;14.25;48.92;99395.41;3437310;80;21532;-77
2022/04/24 17:14:04;;;;;;;4.10;3.60;;;;;;;13.96;49.29;99352.85;3426796;80;22533;-78
2022/04/24 17:18:56;;;;;;;3.42;3.15;;;;;;;13.96;49.29;99352.85;3360638;82;22117;-77
2022/04/24 17:23:47;;;;;;;4.97;3.90;;;;;;;13.89;49.69;99345.56;3416564;82;21777;-77
2022/04/24 17:28:38;;;;;;;10.45;4.25;;;;;;;13.79;49.76;99338.77;3467852;78;20971;-77
2022/04/24 17:33:29;;;;;;;4.40;4.00;;;;;;;13.68;50.07;99326.80;3494563;79;20871;-77
2022/04/24 17:38:21;;;;;;;4.92;3.75;;;;;;;13.52;50.48;99312.26;3473025;78;21327;-77
2022/04/24 17:43:12;;;;;;;7.28;3.95;;;;;;;13.46;50.77;99338.48;3519414;78;20953;-77
2022/04/24 17:48:04;;;;;;;3.75;3.45;;;;;;;13.39;50.94;99342.09;3513384;79;20964;-77
2022/04/24 17:52:56;;;;;;;4.83;3.33;;;;;;;13.30;51.16;99353.05;3522219;78;20968;-77
2022/04/24 17:57:47;;;;;;;4.28;3.87;;;;;;;13.21;51.34;99349.28;3476182;78;21042;-76
2022/04/24 18:02:39;;;;;;;4.33;3.75;;;;;;;13.12;51.57;99339.00;3520643;77;21006;-76
2022/04/24 18:07:30;;;;;;;4.85;3.85;;;;;;;13.01;51.79;99343.07;3497654;78;20931;-76
2022/04/24 18:12:22;;;;;;;4.45;4.05;;;;;;;12.90;52.07;99347.14;3506553;79;21039;-77
2022/04/24 18:17:14;;;;;;;4.90;4.00;;;;;;;12.82;52.35;99355.50;3524580;79;22086;-76
2022/04/24 18:22:05;;;;;;;5.40;4.78;;;;;;;12.77;52.58;99369.08;3511113;79;21010;-76
2022/04/24 18:26:56;;;;;;;5.67;5.00;;;;;;;12.73;52.89;99388.23;3481085;79;20964;-76
2022/04/24 18:31:49;;;;;;;6.10;5.45;;;;;;;12.71;53.07;99387.40;3507780;78;20971;-76
2022/04/24 18:41:50;;;;;;;6.80;5.10;;;;;;;12.65;53.43;99358.36;3510973;79;20956;-76
2022/04/24 18:46:42;;;;;;;5.85;4.85;;;;;;;12.59;53.67;99354.09;3500605;79;21552;-76
2022/04/24 18:51:34;;;;;;;5.40;4.30;;;;;;;12.55;53.87;99370.63;3492810;79;20971;-76
2022/04/24 18:56:25;;;;;;;5.30;4.70;;;;;;;12.54;54.05;99359.80;3518653;79;21003;-76
2022/04/24 19:01:16;;;;;;;7.30;5.60;;;;;;;12.51;54.27;99377.23;3506400;79;21054;-76
2022/04/24 19:11:17;;;;;;;5.90;5.17;;;;;;;12.44;54.41;99366.45;3510526;77;20952;-76
2022/04/24 19:16:12;;;;;;;6.70;5.70;;;;;;;12.44;54.56;99362.55;3437006;79;22162;-76
2022/04/24 19:21:08;;;;;;;5.75;5.15;;;;;;;12.41;54.61;99369.94;3500886;79;20941;-76
2022/04/24 19:26:00;;;;;;;5.30;4.10;;;;;;;12.39;54.64;99363.89;3449371;79;21063;-76
2022/04/24 19:30:53;;;;;;;5.22;4.67;;;;;;;12.35;54.68;99372.64;3473548;79;20968;-76
2022/04/24 19:35:45;;;;;;;5.08;4.62;;;;;;;12.34;54.71;99382.63;3529766;79;20947;-76
2022/04/24 19:40:38;;;;;;;6.33;4.22;;;;;;;12.31;54.81;99370.95;3476642;79;20959;-76
2022/04/24 19:45:31;;;;;;;5.20;4.45;;;;;;;12.30;54.96;99370.52;3491243;79;21070;-76
2022/04/24 19:50:24;;;;;;;4.72;4.17;;;;;;;12.27;54.99;99364.03;3471498;79;21081;-76
2022/04/24 19:55:18;;;;;;;5.95;4.33;;;;;;;12.23;55.05;99367.56;3495041;79;20919;-76
2022/04/24 20:00:10;;;;;;;5.58;4.33;;;;;;;12.23;55.25;99374.08;3520438;79;20927;-76
2022/04/24 20:05:03;;;;;;;6.22;4.78;;;;;;;12.20;55.75;99373.23;3505099;79;20995;-76
2022/04/24 20:09:54;;;;;;;5.20;4.70;;;;;;;12.14;56.54;99380.25;3465365;79;21060;-76
2022/04/24 20:14:45;;;;;;;5.70;4.33;;;;;;;12.06;57.01;99368.62;3549736;79;20963;-76
2022/04/24 20:19:36;;;;;;;5.95;4.92;;;;;;;11.96;57.65;99356.11;3521405;79;21808;-77
2022/04/24 20:24:27;;;;;;;6.37;5.78;;;;;;;11.85;58.24;99351.88;3531350;79;20974;-77
2022/04/24 20:29:18;;;;;;;8.15;6.28;;;;;;;11.70;59.00;99358.95;3506919;79;20888;-76
2022/04/24 20:34:09;;;;;;;9.03;6.47;;;;;;;11.60;59.67;99369.02;3515289;78;21645;-77
2022/04/24 20:39:08;;;;;;;7.28;5.95;;;;;;;11.54;60.70;99376.90;3530679;79;22030;-77
2022/04/24 20:43:53;;;;;;;8.45;7.33;;;;;;;11.49;61.91;99378.22;3528039;79;22028;-77
2022/04/24 20:48:44;;;;;;;9.13;7.05;;;;;;;11.48;62.37;99386.89;3537307;79;21010;-77
2022/04/24 20:53:35;;;;;;;7.65;6.15;;;;;;;11.47;62.67;99381.73;3524628;79;21006;-77
2022/04/24 20:58:26;;;;;;;7.83;7.03;;;;;;;11.41;63.09;99378.30;3547563;79;20958;-77
2022/04/24 21:03:18;;;;;;;9.10;7.80;;;;;;;11.33;63.72;99363.61;3505418;78;21187;-77
2022/04/24 21:08:09;;;;;;;8.90;8.00;;;;;;;11.22;64.00;99353.29;3477177;79;20994;-78
2022/04/24 21:13:00;;;;;;;9.65;8.35;;;;;;;11.16;64.45;99357.22;3493798;79;20975;-77
2022/04/24 21:17:53;;;;;;;9.50;7.95;;;;;;;11.09;64.70;99364.64;3476113;78;21671;-77
2022/04/24 21:22:46;;;;;;;7.67;6.87;;;;;;;10.98;65.15;99360.39;3483673;79;21262;-77
2022/04/24 21:27:37;;;;;;;9.68;7.90;;;;;;;10.87;65.60;99353.07;3472775;78;21516;-77
2022/04/24 21:32:28;;;;;;;9.55;8.48;;;;;;;10.84;66.09;99351.81;3536167;78;21514;-77
2022/04/24 21:37:19;;;;;;;8.35;7.25;;;;;;;10.80;66.26;99354.87;3530991;79;20999;-77
2022/04/24 21:42:11;;;;;;;8.63;7.45;;;;;;;10.76;66.54;99348.38;3484653;79;21681;-77
2022/04/24 21:47:02;;;;;;;9.63;8.30;;;;;;;10.73;66.71;99356.19;3502958;79;20966;-76
2022/04/24 21:51:53;;;;;;;8.23;7.42;;;;;;;10.67;66.98;99357.95;3509414;79;20988;-76
2022/04/24 21:56:44;;;;;;;8.08;6.97;;;;;;;10.56;67.29;99357.14;3546200;79;21014;-77
2022/04/24 22:06:44;;;;;;;8.38;7.47;;;;;;;10.48;67.84;99345.91;3525735;78;21621;-77
2022/04/24 22:11:37;;;;;;;7.90;6.97;;;;;;;10.42;68.15;99351.14;3528301;79;21703;-76
2022/04/24 22:16:28;;;;;;;7.65;6.78;;;;;;;10.36;68.48;99337.75;3475277;79;21847;-77
2022/04/24 22:26:30;;;;;;;8.20;6.33;;;;;;;10.32;68.96;99336.45;3531300;79;20951;-77
2022/04/24 22:31:21;;;;;;;8.88;6.70;;;;;;;10.30;69.05;99320.84;3552574;77;20939;-77
2022/04/24 22:36:13;;;;;;;8.95;7.60;;;;;;;10.22;69.79;99287.11;3524892;79;20960;-77
2022/04/24 22:41:04;;;;;;;7.50;6.80;;;;;;;10.22;69.79;99287.11;3528825;78;21079;-76
2022/04/24 22:45:55;;;;;;;10.90;7.45;;;;;;;10.16;69.83;99292.34;3506605;80;21046;-77
2022/04/24 22:50:47;;;;;;;6.92;6.33;;;;;;;10.12;70.04;99299.70;3470651;79;20961;-76
2022/04/24 22:55:38;;;;;;;8.73;7.22;;;;;;;10.11;70.16;99297.55;3526614;79;21607;-76
2022/04/24 23:00:30;;;;;;;8.73;7.83;;;;;;;10.13;70.16;99290.20;3489121;77;20994;-77
2022/04/24 23:05:22;;;;;;;9.03;8.10;;;;;;;10.03;70.51;99277.67;3480704;79;20991;-76
2022/04/24 23:10:13;;;;;;;10.18;7.08;;;;;;;9.99;70.62;99283.75;3472766;79;20868;-76
2022/04/24 23:15:05;;;;;;;8.45;7.58;;;;;;;9.99;70.85;99292.84;3516130;79;21466;-76
2022/04/24 23:19:56;;;;;;;8.63;7.22;;;;;;;10.03;70.92;99302.33;3504253;78;20955;-77
2022/04/24 23:24:47;;;;;;;8.30;7.50;;;;;;;10.02;71.04;99287.64;3523730;79;21097;-76
2022/04/24 23:29:42;;;;;;;8.28;7.47;;;;;;;10.02;71.04;99287.64;3490450;79;21178;-76
2022/04/24 23:34:37;;;;;;;8.15;7.37;;;;;;;9.91;71.34;99274.26;3477934;79;20998;-76